Time;durP1;ratioP1;P1;durP2;ratioP2;P2;SDS_P1;SDS_P2;PMS_P1;PMS_P2;Temp;Humidity;BMP_temperature;BMP_pressure;BME280_temperature;BME280_humidity;BME280_pressure;Samples;Min_cycle;Max_cycle;Signal;HPM_P1;HPM_P2
2021/01/30 00:05:53;;;;;;;8.73;1.45;;;6.70;99.90;;;;;;20820453;28;19921;-78
2021/01/30 00:15:54;;;;;;;6.33;1.20;;;6.70;99.90;;;;;;20819247;28;20037;-79
2021/01/30 00:25:55;;;;;;;4.53;1.00;;;6.60;99.90;;;;;;20820525;28;20037;-79
2021/01/30 00:35:56;;;;;;;12.27;2.17;;;6.60;99.90;;;;;;20821468;28;20507;-78
2021/01/30 00:45:57;;;;;;;10.73;1.70;;;6.60;99.90;;;;;;20834619;28;20088;-80
2021/01/30 00:55:57;;;;;;;14.10;1.60;;;6.60;99.90;;;;;;20837385;28;20108;-79
2021/01/30 01:05:59;;;;;;;;;;;6.80;99.90;;;;;;20850574;28;20032;-78
2021/01/30 01:16:00;;;;;;;9.13;1.75;;;6.70;99.90;;;;;;20840641;28;19912;-78
2021/01/30 01:26:01;;;;;;;6.83;1.07;;;6.80;99.90;;;;;;20839955;28;20026;-78
2021/01/30 01:36:02;;;;;;;11.67;1.60;;;6.70;99.90;;;;;;20844505;28;20033;-79
2021/01/30 01:46:28;;;;;;;7.53;1.40;;;6.70;99.90;;;;;;20843181;28;20029;-78
2021/01/30 01:56:31;;;;;;;10.07;1.40;;;6.60;99.90;;;;;;20828019;28;20046;-79
2021/01/30 02:06:39;;;;;;;8.13;1.63;;;6.50;99.90;;;;;;20843665;28;20113;-78
2021/01/30 02:16:48;;;;;;;7.40;1.45;;;6.30;99.90;;;;;;20838416;28;20029;-78
2021/01/30 02:27:56;;;;;;;7.95;1.60;;;6.00;99.90;;;;;;20837997;28;20667;-78
2021/01/30 02:38:03;;;;;;;12.20;1.60;;;5.90;99.90;;;;;;20819507;28;20042;-78
2021/01/30 02:48:09;;;;;;;11.38;1.92;;;5.70;99.90;;;;;;20827778;28;20508;-78
2021/01/30 02:58:13;;;;;;;6.97;1.52;;;5.70;99.90;;;;;;20810849;28;20408;-78
2021/01/30 03:08:14;;;;;;;8.57;2.28;;;5.80;99.90;;;;;;20834168;28;20084;-78
2021/01/30 03:18:17;;;;;;;16.43;3.33;;;5.60;99.90;;;;;;20833140;28;20057;-76
2021/01/30 03:28:18;;;;;;;10.65;2.30;;;5.60;99.90;;;;;;20831049;28;20264;-77
2021/01/30 03:38:19;;;;;;;10.23;2.30;;;5.60;99.90;;;;;;20837948;28;20085;-77
2021/01/30 03:48:20;;;;;;;10.30;1.60;;;5.70;99.90;;;;;;20830057;28;20026;-78
2021/01/30 03:58:21;;;;;;;10.83;1.43;;;5.70;99.90;;;;;;20830659;28;20300;-78
2021/01/30 04:08:22;;;;;;;9.27;1.00;;;5.70;99.90;;;;;;20829512;28;20026;-78
2021/01/30 04:18:23;;;;;;;6.57;1.13;;;5.50;99.90;;;;;;20828378;28;20033;-78
2021/01/30 04:28:24;;;;;;;7.13;1.13;;;5.50;99.90;;;;;;20829078;28;20033;-78
2021/01/30 04:38:24;;;;;;;5.37;1.37;;;5.50;99.90;;;;;;20828755;28;20029;-78
2021/01/30 04:48:58;;;;;;;8.53;1.50;;;5.50;99.90;;;;;;20828230;28;20090;-78
2021/01/30 04:59:07;;;;;;;9.32;1.08;;;5.50;99.90;;;;;;20830963;28;20039;-78
2021/01/30 05:09:16;;;;;;;8.32;1.70;;;4.90;99.90;;;;;;20827317;28;20030;-78
2021/01/30 05:19:18;;;;;;;6.95;1.95;;;4.60;99.90;;;;;;20827632;28;20041;-78
2021/01/30 05:29:50;;;;;;;20.00;1.85;;;4.50;99.90;;;;;;20825376;28;20040;-77
2021/01/30 05:40:05;;;;;;;15.00;2.20;;;4.50;99.90;;;;;;20827823;28;20041;-78
2021/01/30 05:50:16;;;;;;;10.98;2.30;;;4.50;99.90;;;;;;20837223;28;20392;-78
2021/01/30 06:00:20;;;;;;;8.03;2.13;;;4.50;99.90;;;;;;20839940;28;20033;-78
2021/01/30 06:10:31;;;;;;;6.18;2.00;;;4.50;99.90;;;;;;20839423;28;20044;-78
2021/01/30 06:20:32;;;;;;;10.03;2.00;;;4.30;99.90;;;;;;20837537;28;20039;-77
2021/01/30 06:30:40;;;;;;;11.53;3.00;;;3.90;99.90;;;;;;20835962;28;20116;-77
2021/01/30 06:40:56;;;;;;;9.40;3.15;;;4.10;99.90;;;;;;20835083;28;20404;-77
2021/01/30 06:50:57;;;;;;;9.20;2.47;;;4.30;99.90;;;;;;20836049;28;20052;-78
2021/01/30 07:01:08;;;;;;;6.60;3.27;;;4.20;99.90;;;;;;20832533;28;20038;-78
2021/01/30 07:11:09;;;;;;;15.15;4.22;;;4.00;99.90;;;;;;20835700;28;20036;-77
2021/01/30 07:21:24;;;;;;;21.60;6.20;;;3.90;99.90;;;;;;20831838;28;20484;-78
2021/01/30 07:31:29;;;;;;;17.67;6.30;;;4.00;99.90;;;;;;20831192;28;20092;-78
2021/01/30 07:41:37;;;;;;;52.50;18.35;;;4.20;99.90;;;;;;20834069;28;20029;-78
2021/01/30 07:51:49;;;;;;;22.83;8.73;;;4.40;99.90;;;;;;20830927;28;20061;-78
2021/01/30 08:02:19;;;;;;;23.15;7.53;;;4.40;99.90;;;;;;20830850;28;20034;-77
2021/01/30 08:12:35;;;;;;;10.63;4.53;;;4.10;99.90;;;;;;20830104;28;20030;-78
2021/01/30 08:22:48;;;;;;;14.52;3.92;;;4.30;99.90;;;;;;20826957;28;20033;-77
2021/01/30 08:33:04;;;;;;;17.23;5.85;;;4.50;99.90;;;;;;20827874;28;20029;-78
2021/01/30 08:43:05;;;;;;;12.75;5.15;;;4.80;99.90;;;;;;20828311;28;20052;-78
2021/01/30 08:53:31;;;;;;;12.43;5.57;;;5.20;99.90;;;;;;20829324;28;20025;-77
2021/01/30 09:03:44;;;;;;;20.23;5.88;;;5.30;99.90;;;;;;20830584;28;20034;-78
2021/01/30 09:14:05;;;;;;;14.00;5.60;;;5.50;99.90;;;;;;20827128;28;20447;-79
2021/01/30 09:24:41;;;;;;;10.63;5.07;;;5.30;99.90;;;;;;20832684;28;20044;-78
2021/01/30 09:34:50;;;;;;;17.77;4.70;;;5.50;99.90;;;;;;20839482;28;20048;-78
2021/01/30 09:45:08;;;;;;;14.20;6.63;;;5.80;99.90;;;;;;20840915;28;20025;-79
2021/01/30 09:55:10;;;;;;;16.42;8.18;;;5.70;99.90;;;;;;20841882;28;20514;-78
2021/01/30 10:05:16;;;;;;;23.88;8.68;;;5.40;99.90;;;;;;20859705;28;20116;-79
2021/01/30 10:15:35;;;;;;;17.75;6.72;;;5.30;99.90;;;;;;20862372;28;20041;-79
2021/01/30 10:25:37;;;;;;;18.00;7.28;;;5.40;99.90;;;;;;20861945;28;20044;-79
2021/01/30 10:35:50;;;;;;;14.35;7.35;;;5.60;99.90;;;;;;20861508;28;20056;-79
2021/01/30 10:45:58;;;;;;;16.50;6.80;;;5.70;99.90;;;;;;20861274;28;20057;-79
2021/01/30 10:56:00;;;;;;;17.85;5.68;;;5.80;99.90;;;;;;20860009;28;20650;-79
2021/01/30 11:06:28;;;;;;;20.65;4.50;;;5.90;99.90;;;;;;20856234;28;20065;-79
2021/01/30 11:16:39;;;;;;;12.10;3.95;;;5.80;99.90;;;;;;20822321;28;20092;-79
2021/01/30 11:26:43;;;;;;;20.27;4.93;;;5.90;99.90;;;;;;20846285;28;20113;-77
2021/01/30 11:36:48;;;;;;;21.52;5.72;;;6.00;99.90;;;;;;20833480;28;20033;-76
2021/01/30 11:46:49;;;;;;;14.27;4.45;;;6.20;99.90;;;;;;20837354;28;20075;-77
2021/01/30 11:56:50;;;;;;;15.10;6.93;;;6.10;99.90;;;;;;20843245;28;20041;-79
2021/01/30 12:06:51;;;;;;;14.87;6.73;;;6.20;99.90;;;;;;20845420;28;20361;-81
2021/01/30 12:16:53;;;;;;;15.65;6.80;;;6.20;99.90;;;;;;20823224;28;20119;-81
2021/01/30 12:26:54;;;;;;;13.80;6.07;;;6.20;99.90;;;;;;20822409;28;20021;-77
2021/01/30 12:36:56;;;;;;;12.38;5.40;;;6.20;99.90;;;;;;20821003;28;20072;-79
2021/01/30 12:46:59;;;;;;;8.70;4.00;;;6.10;99.90;;;;;;20809799;28;20025;-79
2021/01/30 12:57:00;;;;;;;13.18;4.50;;;6.20;99.90;;;;;;20813357;28;20513;-79
2021/01/30 13:07:01;;;;;;;10.73;5.13;;;6.10;99.90;;;;;;20732758;28;20029;-77
2021/01/30 13:17:02;;;;;;;9.03;3.90;;;6.10;99.90;;;;;;20823447;28;20034;-79
2021/01/30 13:27:04;;;;;;;24.67;6.17;;;6.10;99.90;;;;;;20825118;28;20029;-80
2021/01/30 13:37:05;;;;;;;121.95;36.30;;;6.10;99.90;;;;;;20802510;28;20061;-79
2021/01/30 13:47:06;;;;;;;14.57;5.60;;;6.20;99.90;;;;;;20826959;28;20037;-77
2021/01/30 13:57:07;;;;;;;13.63;8.87;;;6.20;99.90;;;;;;20803122;28;20037;-78
2021/01/30 14:07:07;;;;;;;13.27;4.67;;;6.20;99.90;;;;;;20818828;28;20361;-78
2021/01/30 14:17:09;;;;;;;16.17;8.10;;;6.30;99.90;;;;;;20818053;28;20060;-77
2021/01/30 14:27:14;;;;;;;7.85;4.20;;;6.20;99.90;;;;;;20804828;28;20048;-77
2021/01/30 14:37:15;;;;;;;10.10;4.28;;;6.20;99.90;;;;;;20821736;28;20033;-77
2021/01/30 14:47:17;;;;;;;16.10;5.67;;;6.10;99.90;;;;;;20803557;28;20044;-78
2021/01/30 14:57:18;;;;;;;11.65;4.50;;;5.90;99.90;;;;;;20820175;28;20029;-77
2021/01/30 15:07:19;;;;;;;8.27;3.67;;;5.90;99.90;;;;;;20786773;28;20125;-77
2021/01/30 15:17:20;;;;;;;12.80;6.13;;;5.90;99.90;;;;;;20811335;28;20041;-76
2021/01/30 15:27:23;;;;;;;8.88;4.50;;;6.00;99.90;;;;;;20812928;28;20034;-76
2021/01/30 15:37:24;;;;;;;6.18;3.30;;;6.10;99.90;;;;;;20820400;28;20395;-76
2021/01/30 15:47:25;;;;;;;14.18;8.02;;;6.00;99.90;;;;;;20793552;28;20591;-76
2021/01/30 15:57:28;;;;;;;6.77;4.43;;;6.20;99.90;;;;;;20809021;28;20079;-76
2021/01/30 16:07:29;;;;;;;31.77;16.25;;;6.20;99.90;;;;;;20807749;28;20047;-77
2021/01/30 16:17:29;;;;;;;9.17;2.83;;;6.10;99.90;;;;;;20808107;28;20037;-76
2021/01/30 16:27:30;;;;;;;11.10;6.13;;;6.00;99.90;;;;;;20805731;28;20090;-76
2021/01/30 16:37:31;;;;;;;11.53;5.80;;;5.70;99.90;;;;;;20805976;28;20454;-76
2021/01/30 16:47:32;;;;;;;8.10;5.13;;;5.60;99.90;;;;;;20806907;28;20497;-76
2021/01/30 16:57:34;;;;;;;7.47;4.00;;;5.70;99.90;;;;;;20806468;28;20310;-77
2021/01/30 17:07:35;;;;;;;7.65;4.38;;;5.80;99.90;;;;;;20804949;28;20095;-77
2021/01/30 17:17:36;;;;;;;10.60;4.80;;;5.70;99.90;;;;;;20804100;28;20184;-78
2021/01/30 17:27:37;;;;;;;7.43;4.70;;;5.70;99.90;;;;;;20805175;28;20598;-77
2021/01/30 17:37:39;;;;;;;23.33;8.37;;;5.80;99.90;;;;;;20808773;28;20037;-77
2021/01/30 17:47:40;;;;;;;8.77;5.05;;;5.90;99.90;;;;;;20816999;28;20516;-77
2021/01/30 17:57:41;;;;;;;12.63;7.53;;;5.90;99.90;;;;;;20818449;28;20041;-77
2021/01/30 18:07:42;;;;;;;10.53;5.70;;;5.60;99.90;;;;;;20818307;28;20045;-78
2021/01/30 18:17:43;;;;;;;11.50;7.50;;;5.50;99.90;;;;;;20817828;28;20298;-77
2021/01/30 18:27:44;;;;;;;8.70;5.10;;;5.50;99.90;;;;;;20802957;28;20060;-77
2021/01/30 18:37:45;;;;;;;11.57;6.43;;;5.50;99.90;;;;;;20816560;28;20041;-77
2021/01/30 18:47:46;;;;;;;21.35;9.40;;;5.40;99.90;;;;;;20815609;28;20033;-78
2021/01/30 18:57:47;;;;;;;13.50;8.53;;;5.40;99.90;;;;;;20812677;28;20108;-76
2021/01/30 19:07:48;;;;;;;9.37;4.30;;;5.40;99.90;;;;;;20811437;28;20033;-77
2021/01/30 19:17:53;;;;;;;13.43;7.50;;;5.50;99.90;;;;;;20764514;28;20044;-76
2021/01/30 19:27:54;;;;;;;8.88;4.95;;;5.50;99.90;;;;;;20793438;28;20048;-76
2021/01/30 19:37:56;;;;;;;12.00;6.73;;;5.50;99.90;;;;;;20729702;28;20124;-76
2021/01/30 19:47:56;;;;;;;21.45;7.28;;;5.50;99.90;;;;;;20726376;28;20041;-77
2021/01/30 19:57:57;;;;;;;24.90;7.87;;;5.40;99.90;;;;;;20739784;28;20042;-77
2021/01/30 20:07:59;;;;;;;23.23;10.13;;;5.40;99.90;;;;;;20726337;28;20177;-77
2021/01/30 20:18:00;;;;;;;13.93;7.05;;;5.60;99.90;;;;;;20775870;28;20115;-76
2021/01/30 20:28:00;;;;;;;44.00;8.43;;;5.60;99.90;;;;;;20807330;28;20125;-78
2021/01/30 20:38:06;;;;;;;9.77;5.00;;;5.60;99.90;;;;;;20807309;28;20121;-76
2021/01/30 20:48:07;;;;;;;20.02;7.18;;;5.60;99.90;;;;;;20807773;28;20047;-76
2021/01/30 20:58:09;;;;;;;21.00;10.40;;;5.60;99.90;;;;;;20806271;28;20042;-77
2021/01/30 21:08:09;;;;;;;11.73;6.13;;;5.50;99.90;;;;;;20803930;28;20437;-77
2021/01/30 21:18:10;;;;;;;9.60;4.90;;;5.50;99.90;;;;;;20810870;28;20080;-77
2021/01/30 21:28:11;;;;;;;17.50;10.07;;;5.60;99.90;;;;;;20821242;28;20033;-77
2021/01/30 21:38:13;;;;;;;19.30;10.70;;;5.70;99.90;;;;;;20820103;28;20041;-78
2021/01/30 21:48:13;;;;;;;24.88;12.20;;;5.80;99.90;;;;;;20819466;28;20404;-78
2021/01/30 21:58:15;;;;;;;20.43;11.67;;;5.80;99.90;;;;;;20815340;28;20037;-77
2021/01/30 22:08:16;;;;;;;28.23;14.80;;;5.80;99.90;;;;;;20813572;28;20036;-77
2021/01/30 22:18:17;;;;;;;27.33;14.07;;;5.80;99.90;;;;;;20815315;28;20030;-77
2021/01/30 22:28:18;;;;;;;26.60;13.97;;;5.90;99.90;;;;;;20815681;28;20029;-77
2021/01/30 22:38:19;;;;;;;32.73;14.80;;;5.80;99.90;;;;;;20815170;28;20053;-78
2021/01/30 22:48:19;;;;;;;27.40;13.57;;;6.00;99.90;;;;;;20794656;28;20171;-77
2021/01/30 22:58:20;;;;;;;36.47;17.93;;;5.90;99.90;;;;;;20810362;28;20461;-77
2021/01/30 23:08:23;;;;;;;32.77;17.80;;;6.00;99.90;;;;;;20812818;28;20495;-77
2021/01/30 23:18:26;;;;;;;39.33;18.88;;;6.00;99.90;;;;;;20812460;28;20450;-76
2021/01/30 23:28:28;;;;;;;43.75;20.15;;;6.10;99.90;;;;;;20817063;28;20040;-76
2021/01/30 23:38:30;;;;;;;44.05;19.45;;;6.10;99.90;;;;;;20810993;28;20399;-78
2021/01/30 23:48:30;;;;;;;;;;;6.10;99.90;;;;;;20809067;28;20029;-78
2021/01/30 23:58:32;;;;;;;33.47;17.13;;;6.10;99.90;;;;;;20807375;28;20354;-77
